This is the latest recevied weather packets stored in our database for station/object KB3KAV. If no packets are shown the sender has not sent any weather packets the latest 10 day(s).
| Time | Temp. | Humidity | Pressure | Rain* | Wind** | Luminosity | Snow |
|---|---|---|---|---|---|---|---|
| 1787783121 | 22.78° C | 81% | 1045.8 hPa | 0 mm | - | 77 W/m² | - |
| 1787782516 | 22.78° C | 77% | 1045.8 hPa | 0 mm | - | 65 W/m² | - |
| 1787781912 | 23.89° C | 76% | 1045.9 hPa | 0 mm | - | 82 W/m² | - |
| 1787781310 | 25.56° C | 71% | 1046 hPa | 0 mm | - | 168 W/m² | - |
| 1787780709 | 23.89° C | 72% | 1045.6 hPa | 0 mm | - | 189 W/m² | - |
| 1787780105 | 24.44° C | 65% | 1045.9 hPa | 0 mm | - | 121 W/m² | - |
| 1787779505 | 26.67° C | 58% | 1045.8 hPa | 0 mm | - | 122 W/m² | - |
| 1787778905 | 26.11° C | 55% | 1045.7 hPa | 0 mm | - | 367 W/m² | - |
| 1787778302 | 27.22° C | 63% | 1045.8 hPa | 0 mm | - | 264 W/m² | - |
| 1787777698 | 27.22° C | 55% | 1045.7 hPa | 0 mm | - | 463 W/m² | - |
| 1787777094 | 26.11° C | 55% | 1046 hPa | 0 mm | - | 475 W/m² | - |
| 1787776492 | 27.78° C | 52% | 1045.7 hPa | 0 mm | - | 224 W/m² | - |
| 1787775890 | 25.56° C | 64% | 1045.9 hPa | 0 mm | - | 519 W/m² | - |
| 1787775289 | 25.56° C | 62% | 1046.1 hPa | 0 mm | - | 154 W/m² | - |
| 1787774689 | 27.78° C | 51% | 1045.8 hPa | 0 mm | - | 494 W/m² | - |
| 1787774083 | 26.67° C | 57% | 1046.3 hPa | 0 mm | - | 456 W/m² | - |
| 1787773482 | 26.67° C | 54% | 1046.2 hPa | 0 mm | - | 321 W/m² | - |
| 1787772879 | 26.67° C | 54% | 1046.3 hPa | 0 mm | - | 520 W/m² | - |
| 1787772278 | 26.11° C | 54% | 1046.3 hPa | 0 mm | - | 604 W/m² | - |
| 1787771679 | 26.11° C | 53% | 1046.6 hPa | 0 mm | - | 631 W/m² | - |
| 1787771078 | 27.22° C | 51% | 1046.5 hPa | 0 mm | - | 624 W/m² | - |
| 1787770477 | 26.67° C | 51% | 1047 hPa | 0 mm | - | 659 W/m² | - |
| 1787769876 | 26.11° C | 51% | 1046.7 hPa | 0 mm | - | 576 W/m² | - |
| 1787769275 | 26.67° C | 54% | 1047.2 hPa | 0 mm | - | 683 W/m² | - |
| 1787768671 | 27.22° C | 52% | 1047.1 hPa | 0 mm | - | 711 W/m² | - |
* Rain latest hour (hover to see other rain measurements)
** Current wind speed in m/s (hover to see current wind gust speed)